Time;durP1;ratioP1;P1;durP2;ratioP2;P2;SDS_P1;SDS_P2;PMS_P1;PMS_P2;Temp;Humidity;BMP_temperature;BMP_pressure;BME280_temperature;BME280_humidity;BME280_pressure;Samples;Min_cycle;Max_cycle;Signal;HPM_P1;HPM_P2
2022/11/24 00:00:35;;;;;;;3.30;1.90;;;;;;;;;;5063049;28;20189;-67
2022/11/24 00:03:03;;;;;;;5.30;1.90;;;;;;;;;;5062765;28;20201;-67
2022/11/24 00:05:29;;;;;;;5.40;2.15;;;;;;;;;;5062775;28;20205;-67
2022/11/24 00:07:56;;;;;;;5.85;2.42;;;;;;;;;;5062304;28;20197;-67
2022/11/24 00:10:22;;;;;;;5.47;2.40;;;;;;;;;;5062974;28;20477;-67
2022/11/24 00:12:48;;;;;;;6.68;2.00;;;;;;;;;;5062639;28;20205;-67
2022/11/24 00:15:16;;;;;;;3.05;1.35;;;;;;;;;;5062648;28;20201;-67
2022/11/24 00:17:42;;;;;;;3.85;1.60;;;;;;;;;;5062306;28;20211;-67
2022/11/24 00:20:09;;;;;;;5.95;1.60;;;;;;;;;;5061680;28;20201;-67
2022/11/24 00:22:35;;;;;;;2.97;1.40;;;;;;;;;;5061418;28;20203;-67
2022/11/24 00:25:02;;;;;;;8.60;1.90;;;;;;;;;;5061743;28;20508;-67
2022/11/24 00:27:28;;;;;;;7.45;1.63;;;;;;;;;;5061556;28;20393;-67
2022/11/24 00:29:54;;;;;;;8.63;2.50;;;;;;;;;;5061384;28;20220;-67
2022/11/24 00:32:22;;;;;;;8.18;2.13;;;;;;;;;;5061429;28;20197;-67
2022/11/24 00:34:48;;;;;;;4.13;1.60;;;;;;;;;;5061366;28;20373;-67
2022/11/24 00:37:14;;;;;;;7.45;1.80;;;;;;;;;;5061167;28;20427;-67
2022/11/24 00:39:41;;;;;;;5.75;1.80;;;;;;;;;;5061194;28;20200;-67
2022/11/24 00:42:07;;;;;;;3.95;2.05;;;;;;;;;;5061478;28;20208;-67
2022/11/24 00:44:33;;;;;;;10.93;1.92;;;;;;;;;;5061278;28;20197;-67
2022/11/24 00:46:59;;;;;;;5.07;1.55;;;;;;;;;;5061525;28;20388;-67
2022/11/24 00:49:27;;;;;;;4.45;1.70;;;;;;;;;;5060907;28;20216;-67
2022/11/24 00:51:53;;;;;;;5.75;2.13;;;;;;;;;;5061170;28;20197;-67
2022/11/24 00:54:19;;;;;;;6.75;2.30;;;;;;;;;;5061233;28;20203;-67
2022/11/24 00:56:46;;;;;;;6.28;2.00;;;;;;;;;;5061206;28;20197;-67
2022/11/24 00:59:12;;;;;;;10.25;2.08;;;;;;;;;;5060888;28;20200;-67
2022/11/24 01:01:38;;;;;;;7.20;1.65;;;;;;;;;;5061075;28;20197;-67
2022/11/24 01:04:05;;;;;;;5.68;1.98;;;;;;;;;;5060921;28;20212;-67
2022/11/24 01:06:34;;;;;;;7.20;1.90;;;;;;;;;;5060837;28;20197;-67
2022/11/24 01:09:01;;;;;;;5.38;1.73;;;;;;;;;;5059410;28;20201;-67
2022/11/24 01:11:28;;;;;;;7.82;1.77;;;;;;;;;;5061021;28;20243;-67
2022/11/24 01:13:56;;;;;;;6.22;1.55;;;;;;;;;;5060812;28;20212;-67
2022/11/24 01:16:23;;;;;;;5.15;1.77;;;;;;;;;;5061391;28;20204;-67
2022/11/24 01:18:50;;;;;;;5.57;1.70;;;;;;;;;;5024460;28;1033250;-67
2022/11/24 01:21:17;;;;;;;11.88;2.10;;;;;;;;;;5061982;28;20204;-67
2022/11/24 01:23:44;;;;;;;7.00;2.08;;;;;;;;;;5061739;28;20197;-67
2022/11/24 01:26:11;;;;;;;3.50;1.60;;;;;;;;;;5061595;28;20197;-67
2022/11/24 01:28:38;;;;;;;7.30;1.90;;;;;;;;;;5061281;28;20536;-67
2022/11/24 01:31:06;;;;;;;10.48;2.15;;;;;;;;;;5061540;28;20225;-67
2022/11/24 01:33:32;;;;;;;14.70;2.13;;;;;;;;;;5061506;28;20436;-67
2022/11/24 01:35:58;;;;;;;6.68;1.75;;;;;;;;;;5061964;28;20386;-67
2022/11/24 01:38:25;;;;;;;5.25;1.92;;;;;;;;;;5061469;28;20205;-67
2022/11/24 01:41:01;;;;;;;5.10;1.73;;;;;;;;;;5061630;28;20554;-67
2022/11/24 01:43:27;;;;;;;4.38;1.60;;;;;;;;;;5061567;28;20197;-67
2022/11/24 01:45:54;;;;;;;2.72;1.60;;;;;;;;;;5061231;28;20501;-67
2022/11/24 01:48:21;;;;;;;4.65;1.77;;;;;;;;;;5061175;28;20209;-67
2022/11/24 01:50:52;;;;;;;6.72;1.77;;;;;;;;;;5061300;28;20248;-67
2022/11/24 01:53:18;;;;;;;7.80;1.88;;;;;;;;;;5061674;28;20389;-67
2022/11/24 01:55:45;;;;;;;5.45;1.77;;;;;;;;;;5061361;28;20395;-67
2022/11/24 01:58:14;;;;;;;6.10;1.63;;;;;;;;;;5061206;28;20528;-67
2022/11/24 02:00:42;;;;;;;5.75;1.60;;;;;;;;;;5061193;28;20200;-67
2022/11/24 02:03:09;;;;;;;6.82;1.95;;;;;;;;;;5060719;28;20198;-67
2022/11/24 02:05:37;;;;;;;8.07;1.98;;;;;;;;;;5061094;28;20197;-67
2022/11/24 02:08:05;;;;;;;7.45;1.80;;;;;;;;;;5060987;28;20197;-67
2022/11/24 02:10:31;;;;;;;9.02;2.00;;;;;;;;;;5061035;28;20224;-67
2022/11/24 02:12:58;;;;;;;7.95;1.67;;;;;;;;;;5061450;28;20220;-67
2022/11/24 02:15:26;;;;;;;5.75;1.38;;;;;;;;;;5061351;28;20562;-67
2022/11/24 02:17:53;;;;;;;7.55;1.80;;;;;;;;;;5061032;28;20204;-67
2022/11/24 02:20:19;;;;;;;3.13;1.58;;;;;;;;;;5063001;28;20200;-67
2022/11/24 02:22:49;;;;;;;9.45;2.17;;;;;;;;;;5064761;28;20213;-67
2022/11/24 02:25:22;;;;;;;7.03;1.73;;;;;;;;;;5064965;28;20197;-67
2022/11/24 02:27:50;;;;;;;4.97;1.63;;;;;;;;;;5064520;28;20391;-67
2022/11/24 02:30:17;;;;;;;5.82;1.85;;;;;;;;;;5064635;28;20217;-67
2022/11/24 02:32:43;;;;;;;4.07;1.50;;;;;;;;;;5064429;28;20204;-67
2022/11/24 02:35:10;;;;;;;11.15;1.52;;;;;;;;;;5064540;28;20197;-67
2022/11/24 02:37:36;;;;;;;6.95;1.60;;;;;;;;;;5064184;28;20519;-67
2022/11/24 02:40:03;;;;;;;9.25;1.60;;;;;;;;;;5064672;28;20200;-67
2022/11/24 02:42:32;;;;;;;3.45;1.77;;;;;;;;;;5064606;28;20375;-67
2022/11/24 02:45:00;;;;;;;3.35;1.20;;;;;;;;;;5064462;28;20201;-67
2022/11/24 02:47:26;;;;;;;5.72;1.50;;;;;;;;;;5064229;28;20220;-67
2022/11/24 02:49:53;;;;;;;7.50;1.92;;;;;;;;;;5063901;28;20225;-67
2022/11/24 02:52:19;;;;;;;3.55;1.88;;;;;;;;;;5064313;28;20207;-67
2022/11/24 02:54:45;;;;;;;4.43;1.77;;;;;;;;;;5064343;28;20370;-67
2022/11/24 02:57:12;;;;;;;3.28;1.17;;;;;;;;;;5064198;28;20197;-67
2022/11/24 02:59:38;;;;;;;5.07;1.40;;;;;;;;;;5063036;28;20200;-67
2022/11/24 03:02:06;;;;;;;6.50;1.50;;;;;;;;;;5064096;28;20362;-67
2022/11/24 03:04:32;;;;;;;6.20;1.25;;;;;;;;;;5064117;28;20470;-67
2022/11/24 03:06:58;;;;;;;3.95;1.10;;;;;;;;;;5063843;28;20204;-67
2022/11/24 03:09:24;;;;;;;7.25;1.40;;;;;;;;;;5063572;28;20489;-67
2022/11/24 03:11:51;;;;;;;3.70;1.30;;;;;;;;;;5063707;28;20213;-67
2022/11/24 03:14:17;;;;;;;3.45;1.20;;;;;;;;;;5063964;28;20204;-67
2022/11/24 03:16:43;;;;;;;6.35;1.10;;;;;;;;;;5063621;28;20197;-67
2022/11/24 03:19:11;;;;;;;7.75;1.58;;;;;;;;;;5063477;28;20211;-67
2022/11/24 03:21:37;;;;;;;4.85;1.10;;;;;;;;;;5063618;28;20231;-67
2022/11/24 03:24:04;;;;;;;2.25;1.13;;;;;;;;;;5063556;28;20222;-67
2022/11/24 03:26:30;;;;;;;1.60;1.00;;;;;;;;;;5063466;28;20211;-67
2022/11/24 03:28:57;;;;;;;2.45;1.27;;;;;;;;;;5063359;28;20235;-67
2022/11/24 03:31:23;;;;;;;5.30;1.63;;;;;;;;;;5062424;28;20221;-67
2022/11/24 03:33:49;;;;;;;3.28;1.35;;;;;;;;;;5063589;28;20197;-67
2022/11/24 03:36:17;;;;;;;3.42;1.80;;;;;;;;;;5063373;28;20213;-67
2022/11/24 03:38:43;;;;;;;3.70;1.55;;;;;;;;;;5063011;28;20203;-67
2022/11/24 03:41:10;;;;;;;1.88;1.20;;;;;;;;;;5062990;28;20205;-67
2022/11/24 03:43:36;;;;;;;3.33;1.30;;;;;;;;;;5063304;28;20213;-67
2022/11/24 03:46:02;;;;;;;5.75;1.38;;;;;;;;;;5063335;28;20197;-67
2022/11/24 03:48:29;;;;;;;4.18;1.55;;;;;;;;;;5063008;28;20205;-67
2022/11/24 03:50:56;;;;;;;4.45;1.20;;;;;;;;;;5062944;28;20217;-67
2022/11/24 03:53:24;;;;;;;5.63;1.30;;;;;;;;;;5063384;28;20197;-67
2022/11/24 03:55:50;;;;;;;3.65;1.08;;;;;;;;;;5062907;28;20544;-67
2022/11/24 03:58:17;;;;;;;4.00;1.60;;;;;;;;;;5062814;28;20197;-67
2022/11/24 04:00:43;;;;;;;3.92;1.33;;;;;;;;;;5062811;28;20212;-67
2022/11/24 04:03:09;;;;;;;1.42;1.10;;;;;;;;;;5062909;28;20540;-67
2022/11/24 04:05:36;;;;;;;0.95;0.93;;;;;;;;;;5062916;28;20219;-67
2022/11/24 04:08:04;;;;;;;2.95;1.15;;;;;;;;;;5062450;28;20197;-67
2022/11/24 04:10:32;;;;;;;1.73;1.17;;;;;;;;;;5062909;28;20383;-67
2022/11/24 04:12:57;;;;;;;1.20;1.10;;;;;;;;;;5062791;28;20496;-67
2022/11/24 04:15:24;;;;;;;6.30;1.42;;;;;;;;;;5062592;28;20223;-67
2022/11/24 04:17:50;;;;;;;2.50;1.17;;;;;;;;;;5062650;28;20203;-67
2022/11/24 04:20:17;;;;;;;1.85;0.90;;;;;;;;;;5062394;28;20207;-67
2022/11/24 04:22:43;;;;;;;1.20;1.10;;;;;;;;;;5062346;28;20208;-67
2022/11/24 04:25:10;;;;;;;1.00;0.90;;;;;;;;;;5062514;28;20205;-67
2022/11/24 04:27:38;;;;;;;1.67;1.35;;;;;;;;;;5062206;28;20270;-67
2022/11/24 04:30:04;;;;;;;3.05;1.52;;;;;;;;;;5062331;28;20312;-67
2022/11/24 04:32:31;;;;;;;3.65;0.90;;;;;;;;;;5062356;28;20201;-67
2022/11/24 04:34:57;;;;;;;2.33;1.20;;;;;;;;;;5062181;28;20197;-67
2022/11/24 04:37:23;;;;;;;4.68;0.90;;;;;;;;;;5062115;28;20373;-67
2022/11/24 04:39:50;;;;;;;3.20;1.20;;;;;;;;;;5062192;28;20412;-67
2022/11/24 04:42:16;;;;;;;3.10;0.90;;;;;;;;;;5062097;28;20205;-67
2022/11/24 04:44:43;;;;;;;6.05;1.42;;;;;;;;;;5062152;28;20203;-67
2022/11/24 04:47:12;;;;;;;7.28;1.33;;;;;;;;;;5062198;28;20197;-67
2022/11/24 04:49:39;;;;;;;2.55;1.27;;;;;;;;;;5061893;28;20519;-67
2022/11/24 04:52:05;;;;;;;6.60;1.35;;;;;;;;;;5062028;28;20227;-67
2022/11/24 04:54:31;;;;;;;4.35;1.17;;;;;;;;;;5061925;28;20200;-67
2022/11/24 04:56:57;;;;;;;4.05;1.52;;;;;;;;;;5062099;28;20224;-67
2022/11/24 04:59:24;;;;;;;1.85;1.42;;;;;;;;;;5061731;28;20197;-67
2022/11/24 05:01:51;;;;;;;3.60;1.17;;;;;;;;;;5061936;28;20219;-67
2022/11/24 05:04:20;;;;;;;6.82;1.50;;;;;;;;;;5061624;28;20233;-67
2022/11/24 05:06:46;;;;;;;5.22;1.45;;;;;;;;;;5061939;28;20235;-67
2022/11/24 05:09:14;;;;;;;3.55;1.35;;;;;;;;;;5061837;28;20343;-67
2022/11/24 05:11:40;;;;;;;2.60;1.20;;;;;;;;;;5061841;28;20213;-67
2022/11/24 05:14:06;;;;;;;6.95;1.73;;;;;;;;;;5061708;28;20193;-67
2022/11/24 05:16:32;;;;;;;3.10;1.65;;;;;;;;;;5061743;28;20246;-67
2022/11/24 05:19:00;;;;;;;4.15;1.83;;;;;;;;;;5061364;28;20381;-67
2022/11/24 05:21:27;;;;;;;3.35;1.58;;;;;;;;;;5062208;28;20193;-67
2022/11/24 05:23:53;;;;;;;6.90;1.88;;;;;;;;;;5062008;28;20448;-67
2022/11/24 05:26:20;;;;;;;5.00;1.75;;;;;;;;;;5061920;28;20223;-67
2022/11/24 05:28:46;;;;;;;3.05;1.88;;;;;;;;;;5061378;28;20513;-67
2022/11/24 05:31:12;;;;;;;3.42;1.48;;;;;;;;;;5061546;28;20213;-67
2022/11/24 05:33:39;;;;;;;2.83;1.92;;;;;;;;;;5061548;28;20518;-67
2022/11/24 05:36:07;;;;;;;7.45;2.13;;;;;;;;;;5061497;28;20197;-67
2022/11/24 05:38:54;;;;;;;3.08;2.00;;;;;;;;;;5061473;28;20193;-67
2022/11/24 05:41:20;;;;;;;2.55;1.75;;;;;;;;;;5061440;28;20201;-67
2022/11/24 05:43:46;;;;;;;2.25;1.85;;;;;;;;;;5061387;28;20219;-67
2022/11/24 05:46:12;;;;;;;4.78;1.90;;;;;;;;;;5061583;28;20203;-67
2022/11/24 05:48:39;;;;;;;3.08;1.75;;;;;;;;;;5061465;28;20204;-67
2022/11/24 05:51:06;;;;;;;3.90;1.92;;;;;;;;;;5061529;28;20228;-67
2022/11/24 05:53:33;;;;;;;3.65;1.80;;;;;;;;;;5061481;28;20203;-67
2022/11/24 05:56:02;;;;;;;4.10;2.50;;;;;;;;;;5064421;28;20197;-67
2022/11/24 05:58:28;;;;;;;3.00;2.33;;;;;;;;;;5064850;28;20487;-67
2022/11/24 06:00:54;;;;;;;5.20;2.85;;;;;;;;;;5065239;28;20193;-67
2022/11/24 06:03:21;;;;;;;3.92;2.47;;;;;;;;;;5065012;28;20197;-67
2022/11/24 06:05:47;;;;;;;4.35;2.20;;;;;;;;;;5064829;28;20197;-67
2022/11/24 06:08:15;;;;;;;8.88;2.92;;;;;;;;;;5064611;28;20520;-67
2022/11/24 06:10:41;;;;;;;3.20;2.90;;;;;;;;;;5064605;28;20213;-67
2022/11/24 06:13:07;;;;;;;5.43;2.80;;;;;;;;;;5064417;28;20411;-67
2022/11/24 06:15:35;;;;;;;7.93;2.88;;;;;;;;;;5064708;28;20197;-67
2022/11/24 06:18:01;;;;;;;5.85;2.72;;;;;;;;;;5064254;28;20197;-67
2022/11/24 06:20:27;;;;;;;5.57;2.60;;;;;;;;;;5064762;28;20534;-67
2022/11/24 06:22:54;;;;;;;6.93;2.45;;;;;;;;;;5064387;28;20268;-68
2022/11/24 06:25:21;;;;;;;5.15;2.20;;;;;;;;;;5064380;28;20197;-68
2022/11/24 06:27:48;;;;;;;7.97;2.85;;;;;;;;;;5063796;28;20225;-68
2022/11/24 06:30:14;;;;;;;9.43;2.53;;;;;;;;;;5064341;28;20203;-68
2022/11/24 06:32:43;;;;;;;6.13;2.33;;;;;;;;;;5064387;28;20197;-68
2022/11/24 06:35:10;;;;;;;9.57;2.33;;;;;;;;;;5064264;28;20243;-68
2022/11/24 06:37:36;;;;;;;9.10;3.25;;;;;;;;;;5063931;28;20201;-68
2022/11/24 06:40:03;;;;;;;9.43;3.35;;;;;;;;;;5064034;28;20209;-68
2022/11/24 06:42:30;;;;;;;8.13;2.65;;;;;;;;;;5063873;28;20204;-68
2022/11/24 06:44:57;;;;;;;6.72;3.45;;;;;;;;;;5063542;28;20443;-59
2022/11/24 06:47:23;;;;;;;10.13;3.63;;;;;;;;;;5063907;28;20212;-58
2022/11/24 06:49:49;;;;;;;8.13;3.42;;;;;;;;;;5060725;28;20209;-59
2022/11/24 06:52:15;;;;;;;9.52;4.10;;;;;;;;;;5052932;28;20528;-58
2022/11/24 06:54:42;;;;;;;10.52;4.13;;;;;;;;;;5056773;28;20228;-58
2022/11/24 06:57:09;;;;;;;6.00;3.25;;;;;;;;;;5052836;28;20470;-59
2022/11/24 06:59:36;;;;;;;6.95;3.70;;;;;;;;;;5057819;28;20216;-59
2022/11/24 07:02:02;;;;;;;7.10;3.17;;;;;;;;;;5057721;28;20212;-59
2022/11/24 07:04:29;;;;;;;7.90;3.72;;;;;;;;;;5057756;28;20271;-59
2022/11/24 07:06:55;;;;;;;7.75;3.80;;;;;;;;;;5053780;28;20209;-60
2022/11/24 07:09:21;;;;;;;7.82;3.30;;;;;;;;;;5049962;28;20213;-59
2022/11/24 07:11:48;;;;;;;9.98;4.03;;;;;;;;;;5034621;28;20239;-57
2022/11/24 07:14:14;;;;;;;10.43;3.90;;;;;;;;;;5035346;28;20525;-58
2022/11/24 07:16:41;;;;;;;7.85;3.72;;;;;;;;;;5035484;28;20205;-59
2022/11/24 07:19:09;;;;;;;8.30;4.00;;;;;;;;;;5041741;28;20243;-58
2022/11/24 07:21:35;;;;;;;9.25;4.00;;;;;;;;;;5049629;28;20221;-59
2022/11/24 07:24:01;;;;;;;9.02;3.70;;;;;;;;;;5043874;28;20528;-58
2022/11/24 07:26:28;;;;;;;9.23;3.72;;;;;;;;;;5055523;28;20219;-58
2022/11/24 07:28:54;;;;;;;9.57;4.07;;;;;;;;;;5055057;28;20229;-59
2022/11/24 07:31:23;;;;;;;8.50;4.35;;;;;;;;;;5043353;28;20241;-59
2022/11/24 07:33:51;;;;;;;8.57;3.85;;;;;;;;;;5050410;28;20214;-58
2022/11/24 07:36:18;;;;;;;15.38;4.68;;;;;;;;;;5039993;28;20220;-57
2022/11/24 07:38:44;;;;;;;9.65;4.68;;;;;;;;;;5055453;28;20426;-58
2022/11/24 07:41:11;;;;;;;8.57;4.65;;;;;;;;;;5055254;28;20217;-58
2022/11/24 07:43:38;;;;;;;8.13;4.28;;;;;;;;;;5054949;28;20212;-58
2022/11/24 07:46:04;;;;;;;11.50;4.75;;;;;;;;;;5044741;28;20209;-58
2022/11/24 07:48:31;;;;;;;9.70;4.82;;;;;;;;;;5051299;28;20213;-58
2022/11/24 07:51:00;;;;;;;9.70;4.10;;;;;;;;;;5034799;28;20225;-58
2022/11/24 07:53:26;;;;;;;10.27;4.25;;;;;;;;;;5035984;28;20406;-57
2022/11/24 07:55:53;;;;;;;11.82;4.65;;;;;;;;;;5034798;28;20539;-57
2022/11/24 07:58:20;;;;;;;10.70;4.32;;;;;;;;;;5035928;28;20217;-60
2022/11/24 08:00:46;;;;;;;9.80;4.28;;;;;;;;;;5036252;28;20216;-59
2022/11/24 08:03:12;;;;;;;8.80;4.35;;;;;;;;;;5054465;28;20474;-59
2022/11/24 08:05:40;;;;;;;11.63;3.85;;;;;;;;;;5055465;28;20536;-60
2022/11/24 08:08:07;;;;;;;7.15;3.88;;;;;;;;;;5037294;28;20452;-61
2022/11/24 08:10:33;;;;;;;9.38;4.13;;;;;;;;;;5035948;28;20419;-60
2022/11/24 08:13:00;;;;;;;10.73;3.55;;;;;;;;;;5035743;28;20264;-60
2022/11/24 08:15:26;;;;;;;6.47;3.05;;;;;;;;;;5035092;28;20209;-60
2022/11/24 08:17:53;;;;;;;10.13;2.50;;;;;;;;;;5034126;28;20301;-60
2022/11/24 08:20:19;;;;;;;9.43;3.05;;;;;;;;;;5039017;28;20304;-60
2022/11/24 08:22:45;;;;;;;11.25;2.97;;;;;;;;;;5055411;28;20276;-58
2022/11/24 08:25:14;;;;;;;7.45;2.30;;;;;;;;;;5054502;28;20233;-57
2022/11/24 08:27:40;;;;;;;10.60;3.00;;;;;;;;;;5055441;28;20252;-57
2022/11/24 08:30:07;;;;;;;6.13;2.67;;;;;;;;;;5053370;28;20219;-57
2022/11/24 08:32:33;;;;;;;11.10;2.80;;;;;;;;;;5033575;28;20521;-58
2022/11/24 08:34:59;;;;;;;16.27;3.40;;;;;;;;;;5046313;28;20220;-58
2022/11/24 08:37:28;;;;;;;12.63;3.10;;;;;;;;;;5043799;28;20243;-58
2022/11/24 08:39:54;;;;;;;9.23;2.75;;;;;;;;;;5055301;28;20308;-58
2022/11/24 08:42:21;;;;;;;13.45;5.25;;;;;;;;;;5051733;28;20514;-58
2022/11/24 08:44:48;;;;;;;13.57;4.10;;;;;;;;;;5034514;28;20210;-58
2022/11/24 08:47:15;;;;;;;16.65;4.18;;;;;;;;;;5037561;28;20219;-58
2022/11/24 08:49:41;;;;;;;14.73;4.32;;;;;;;;;;5048301;28;20210;-57
2022/11/24 08:52:08;;;;;;;11.40;3.90;;;;;;;;;;5046700;28;20220;-58
2022/11/24 08:54:34;;;;;;;9.00;3.08;;;;;;;;;;5049215;28;20218;-56
2022/11/24 08:57:00;;;;;;;9.18;3.05;;;;;;;;;;5046695;28;20223;-58
2022/11/24 08:59:28;;;;;;;8.63;2.70;;;;;;;;;;5049483;28;20235;-57
2022/11/24 09:01:54;;;;;;;9.88;2.70;;;;;;;;;;5045129;28;20533;-57
2022/11/24 09:04:21;;;;;;;15.65;3.42;;;;;;;;;;5053708;28;20220;-57
2022/11/24 09:06:47;;;;;;;10.90;2.58;;;;;;;;;;5053746;28;20212;-57
2022/11/24 09:09:13;;;;;;;10.35;2.80;;;;;;;;;;5050933;28;20209;-56
2022/11/24 09:11:40;;;;;;;8.52;2.75;;;;;;;;;;5047804;28;20227;-58
2022/11/24 09:14:06;;;;;;;15.82;3.42;;;;;;;;;;5053885;28;20213;-57
2022/11/24 09:16:33;;;;;;;9.45;2.28;;;;;;;;;;5053914;28;20525;-58
2022/11/24 09:19:00;;;;;;;13.35;2.92;;;;;;;;;;5040179;28;20227;-60
2022/11/24 09:21:27;;;;;;;12.75;2.42;;;;;;;;;;5039128;28;20266;-59
2022/11/24 09:23:54;;;;;;;10.05;2.17;;;;;;;;;;5053734;28;20213;-59
2022/11/24 09:26:22;;;;;;;9.07;1.52;;;;;;;;;;5055152;28;20215;-60
2022/11/24 09:28:49;;;;;;;4.32;1.40;;;;;;;;;;5046453;28;20226;-60
2022/11/24 09:31:17;;;;;;;11.02;2.53;;;;;;;;;;5048142;28;20284;-60
2022/11/24 09:33:45;;;;;;;5.07;1.50;;;;;;;;;;5058420;28;20247;-60
2022/11/24 09:36:12;;;;;;;9.30;2.05;;;;;;;;;;5058819;28;20339;-60
2022/11/24 09:38:38;;;;;;;9.93;2.08;;;;;;;;;;5058396;28;20216;-57
2022/11/24 09:41:20;;;;;;;6.63;2.35;;;;;;;;;;5057614;28;20205;-60
2022/11/24 09:43:49;;;;;;;3.90;2.00;;;;;;;;;;5058278;28;20220;-61
2022/11/24 09:46:19;;;;;;;6.63;1.80;;;;;;;;;;5058114;28;20213;-60
2022/11/24 09:48:48;;;;;;;6.53;2.20;;;;;;;;;;5058168;28;20223;-60
2022/11/24 09:51:15;;;;;;;6.38;1.83;;;;;;;;;;5051088;28;20218;-59
2022/11/24 09:53:44;;;;;;;6.45;2.08;;;;;;;;;;5042418;28;20213;-59
2022/11/24 09:56:14;;;;;;;9.15;2.17;;;;;;;;;;5058613;28;20536;-59
2022/11/24 09:58:43;;;;;;;4.32;1.75;;;;;;;;;;5054762;28;20217;-59
2022/11/24 10:01:12;;;;;;;5.75;1.83;;;;;;;;;;5038761;28;20579;-59
2022/11/24 10:03:42;;;;;;;2.67;1.35;;;;;;;;;;5037289;28;20650;-57
2022/11/24 10:06:17;;;;;;;4.30;1.60;;;;;;;;;;5049690;28;20531;-57
2022/11/24 10:08:50;;;;;;;4.75;1.50;;;;;;;;;;5056601;28;20208;-57
2022/11/24 10:11:22;;;;;;;4.18;1.60;;;;;;;;;;5056846;28;20209;-57
2022/11/24 10:13:59;;;;;;;3.58;1.40;;;;;;;;;;5056984;28;20209;-56
2022/11/24 10:16:32;;;;;;;2.30;1.30;;;;;;;;;;5057083;28;20224;-57
2022/11/24 10:19:02;;;;;;;4.13;1.10;;;;;;;;;;5056845;28;20536;-57
2022/11/24 10:21:44;;;;;;;1.98;1.20;;;;;;;;;;5056506;28;20209;-58
2022/11/24 10:24:22;;;;;;;5.13;1.30;;;;;;;;;;5037772;28;20235;-57
2022/11/24 10:26:51;;;;;;;2.20;0.90;;;;;;;;;;5036846;28;20213;-58
2022/11/24 10:29:20;;;;;;;1.83;1.20;;;;;;;;;;5037449;28;20225;-57
2022/11/24 10:31:47;;;;;;;2.55;1.00;;;;;;;;;;5037211;28;20233;-57
2022/11/24 10:34:16;;;;;;;0.90;0.90;;;;;;;;;;5051709;28;20209;-59
2022/11/24 10:36:44;;;;;;;2.60;1.10;;;;;;;;;;5057423;28;20213;-57
2022/11/24 10:39:13;;;;;;;1.67;1.00;;;;;;;;;;5056929;28;20213;-59
2022/11/24 10:41:44;;;;;;;2.13;1.10;;;;;;;;;;5056892;28;20213;-58
2022/11/24 10:44:12;;;;;;;2.53;0.90;;;;;;;;;;5057697;28;20505;-58
2022/11/24 10:46:38;;;;;;;3.00;1.00;;;;;;;;;;5057957;28;20209;-59
2022/11/24 10:49:05;;;;;;;1.42;1.17;;;;;;;;;;5036664;28;20840;-59
2022/11/24 10:51:36;;;;;;;1.02;1.02;;;;;;;;;;5037864;28;20452;-58
2022/11/24 10:54:05;;;;;;;0.93;0.70;;;;;;;;;;5037455;28;20221;-58
2022/11/24 10:56:38;;;;;;;1.50;0.60;;;;;;;;;;5037307;28;20214;-57
2022/11/24 10:59:19;;;;;;;1.60;0.90;;;;;;;;;;5036692;28;20528;-59
2022/11/24 11:01:46;;;;;;;1.13;0.70;;;;;;;;;;5055590;28;20470;-58
2022/11/24 11:04:18;;;;;;;1.50;0.70;;;;;;;;;;5051514;28;20220;-58
2022/11/24 11:06:44;;;;;;;0.43;0.43;;;;;;;;;;5043790;28;20209;-59
2022/11/24 11:09:16;;;;;;;0.95;0.60;;;;;;;;;;5049392;28;20217;-60
2022/11/24 11:11:43;;;;;;;0.63;0.63;;;;;;;;;;5036785;28;20221;-58
2022/11/24 11:14:11;;;;;;;1.85;0.60;;;;;;;;;;5036613;28;20219;-59
2022/11/24 11:16:40;;;;;;;2.92;0.90;;;;;;;;;;5053315;28;20271;-59
2022/11/24 11:19:25;;;;;;;1.00;0.60;;;;;;;;;;5055937;28;20417;-59
2022/11/24 11:21:59;;;;;;;1.80;0.52;;;;;;;;;;5050931;28;20295;-59
2022/11/24 11:24:26;;;;;;;0.70;0.50;;;;;;;;;;5055150;28;20213;-59
2022/11/24 11:26:58;;;;;;;1.45;0.63;;;;;;;;;;5046737;28;20221;-59
2022/11/24 11:29:26;;;;;;;0.70;0.70;;;;;;;;;;5037041;28;20229;-58
2022/11/24 11:31:58;;;;;;;0.93;0.77;;;;;;;;;;5054065;28;20212;-59
2022/11/24 11:34:24;;;;;;;1.17;0.60;;;;;;;;;;5053344;28;20235;-59
2022/11/24 11:36:52;;;;;;;1.65;0.65;;;;;;;;;;5054121;28;20205;-60
2022/11/24 11:39:22;;;;;;;1.27;0.50;;;;;;;;;;5054616;28;20213;-59
2022/11/24 11:41:50;;;;;;;1.13;0.75;;;;;;;;;;5054723;28;20217;-59
2022/11/24 11:44:21;;;;;;;0.50;0.50;;;;;;;;;;5053785;28;20421;-59
2022/11/24 11:46:47;;;;;;;0.75;0.70;;;;;;;;;;5054837;28;20217;-59
2022/11/24 11:49:15;;;;;;;2.45;0.70;;;;;;;;;;5047366;28;20627;-58
2022/11/24 11:51:45;;;;;;;1.45;0.70;;;;;;;;;;5033011;28;20536;-58
2022/11/24 11:54:17;;;;;;;1.42;0.73;;;;;;;;;;5033434;28;20212;-58
2022/11/24 11:56:44;;;;;;;1.55;0.60;;;;;;;;;;5039932;28;20542;-58
2022/11/24 11:59:28;;;;;;;1.30;0.80;;;;;;;;;;5042321;28;20205;-59
2022/11/24 12:02:01;;;;;;;2.85;0.90;;;;;;;;;;5033551;28;20228;-58
2022/11/24 12:04:36;;;;;;;1.38;0.82;;;;;;;;;;5046348;28;20214;-58
2022/11/24 12:07:11;;;;;;;4.35;0.90;;;;;;;;;;5037522;28;20217;-57
2022/11/24 12:09:43;;;;;;;2.15;0.70;;;;;;;;;;5033387;28;20524;-58
2022/11/24 12:12:18;;;;;;;2.53;1.00;;;;;;;;;;5039728;28;20205;-58
2022/11/24 12:14:49;;;;;;;1.00;0.80;;;;;;;;;;5045423;28;20217;-58
2022/11/24 12:17:21;;;;;;;2.53;1.13;;;;;;;;;;5035304;28;20224;-57
2022/11/24 12:19:56;;;;;;;4.35;1.33;;;;;;;;;;5033351;28;20416;-58
2022/11/24 12:22:27;;;;;;;0.90;0.90;;;;;;;;;;5037397;28;20243;-59
2022/11/24 12:24:56;;;;;;;2.40;0.90;;;;;;;;;;5044905;28;20220;-58
2022/11/24 12:27:27;;;;;;;1.45;0.93;;;;;;;;;;5052143;28;20476;-58
2022/11/24 12:30:07;;;;;;;4.85;3.75;;;;;;;;;;5032311;28;20228;-58
2022/11/24 12:32:42;;;;;;;2.60;2.10;;;;;;;;;;5046551;28;20234;-58
2022/11/24 12:35:15;;;;;;;2.78;1.88;;;;;;;;;;5045991;28;20462;-58
2022/11/24 12:37:49;;;;;;;2.10;1.30;;;;;;;;;;5046457;28;20212;-58
2022/11/24 12:40:20;;;;;;;1.52;1.00;;;;;;;;;;5038591;28;20213;-59
2022/11/24 12:42:52;;;;;;;2.47;1.20;;;;;;;;;;5040750;28;20202;-58
2022/11/24 12:45:22;;;;;;;0.85;0.85;;;;;;;;;;5033439;28;20233;-58
2022/11/24 12:47:55;;;;;;;1.17;0.90;;;;;;;;;;5032526;28;20220;-58
2022/11/24 12:50:26;;;;;;;2.67;1.33;;;;;;;;;;5032407;28;20216;-58
2022/11/24 12:52:54;;;;;;;4.75;1.25;;;;;;;;;;5032492;28;20639;-58
2022/11/24 12:55:22;;;;;;;4.65;0.90;;;;;;;;;;5038959;28;20216;-59
2022/11/24 12:57:51;;;;;;;2.33;1.10;;;;;;;;;;5052671;28;20468;-59
2022/11/24 13:00:20;;;;;;;1.73;1.30;;;;;;;;;;5046329;28;20248;-60
2022/11/24 13:02:54;;;;;;;3.78;3.13;;;;;;;;;;5043949;28;20517;-59
2022/11/24 13:05:23;;;;;;;5.43;1.75;;;;;;;;;;5046890;28;20212;-58
2022/11/24 13:07:56;;;;;;;5.65;1.50;;;;;;;;;;5049340;28;20201;-58
2022/11/24 13:10:30;;;;;;;5.47;1.33;;;;;;;;;;5045176;28;20209;-58
2022/11/24 13:12:57;;;;;;;3.55;1.23;;;;;;;;;;5055233;28;20430;-57
2022/11/24 13:15:23;;;;;;;3.33;0.95;;;;;;;;;;5055520;28;20216;-57
2022/11/24 13:17:50;;;;;;;2.45;1.10;;;;;;;;;;5055353;28;20436;-57
2022/11/24 13:20:21;;;;;;;4.28;1.48;;;;;;;;;;5054433;28;20471;-56
2022/11/24 13:22:48;;;;;;;1.80;1.35;;;;;;;;;;5055618;28;20205;-58
2022/11/24 13:25:18;;;;;;;4.18;1.17;;;;;;;;;;5041231;28;20209;-59
2022/11/24 13:27:47;;;;;;;1.98;1.13;;;;;;;;;;5046618;28;20593;-59
2022/11/24 13:30:28;;;;;;;5.47;1.40;;;;;;;;;;5042255;28;20273;-58
2022/11/24 13:33:01;;;;;;;3.17;1.20;;;;;;;;;;5019955;28;20228;-58
2022/11/24 13:35:28;;;;;;;3.53;1.17;;;;;;;;;;5053338;28;20236;-58
2022/11/24 13:37:54;;;;;;;6.32;1.13;;;;;;;;;;5054013;28;20284;-59
2022/11/24 13:40:42;;;;;;;5.50;1.10;;;;;;;;;;5050980;28;20208;-58
2022/11/24 13:43:21;;;;;;;5.40;1.75;;;;;;;;;;5055395;28;20200;-58
2022/11/24 13:45:48;;;;;;;4.95;1.30;;;;;;;;;;5052888;28;20227;-57
2022/11/24 13:48:29;;;;;;;5.53;1.40;;;;;;;;;;5035378;28;20210;-58
2022/11/24 13:51:14;;;;;;;2.90;1.05;;;;;;;;;;5038048;28;20202;-58
2022/11/24 13:53:42;;;;;;;3.65;1.40;;;;;;;;;;5034919;28;20235;-59
2022/11/24 13:56:21;;;;;;;4.28;1.30;;;;;;;;;;5034676;28;20217;-56
2022/11/24 13:58:48;;;;;;;2.80;2.10;;;;;;;;;;5054157;28;20215;-56
2022/11/24 14:01:17;;;;;;;5.18;1.70;;;;;;;;;;5055452;28;20208;-58
2022/11/24 14:03:46;;;;;;;4.25;1.20;;;;;;;;;;5055170;28;20212;-58
2022/11/24 14:06:15;;;;;;;3.25;1.50;;;;;;;;;;5045197;28;20579;-58
2022/11/24 14:08:45;;;;;;;3.05;1.40;;;;;;;;;;5034906;28;20216;-58
2022/11/24 14:11:14;;;;;;;7.20;1.63;;;;;;;;;;5041653;28;20209;-58
2022/11/24 14:13:40;;;;;;;5.32;1.48;;;;;;;;;;5054705;28;20228;-58
2022/11/24 14:16:13;;;;;;;5.28;1.48;;;;;;;;;;5044398;28;20209;-59
2022/11/24 14:18:40;;;;;;;4.20;1.50;;;;;;;;;;5058708;28;20213;-59
2022/11/24 14:21:15;;;;;;;5.10;1.38;;;;;;;;;;5059141;28;20243;-59
2022/11/24 14:23:43;;;;;;;8.35;1.65;;;;;;;;;;5058995;28;20250;-59
2022/11/24 14:26:16;;;;;;;5.75;1.70;;;;;;;;;;5058909;28;20213;-59
2022/11/24 14:28:44;;;;;;;6.85;1.50;;;;;;;;;;5048927;28;20229;-59
2022/11/24 14:31:18;;;;;;;4.05;1.52;;;;;;;;;;5048106;28;20209;-59
2022/11/24 14:33:45;;;;;;;3.80;1.20;;;;;;;;;;5041228;28;20553;-59
2022/11/24 14:36:13;;;;;;;4.60;1.58;;;;;;;;;;5042828;28;20555;-59
2022/11/24 14:38:40;;;;;;;6.03;1.52;;;;;;;;;;5058131;28;20209;-59
2022/11/24 14:41:14;;;;;;;4.65;1.55;;;;;;;;;;5039719;28;20404;-59
2022/11/24 14:43:40;;;;;;;3.30;1.48;;;;;;;;;;5038395;28;20209;-59
2022/11/24 14:46:10;;;;;;;3.63;1.40;;;;;;;;;;5039255;28;20233;-59